createdAt,value
2022-10-04T00:01:12.226Z,99.90
2022-10-04T00:06:24.348Z,99.90
2022-10-04T00:11:28.424Z,99.90
2022-10-04T00:16:34.586Z,99.90
2022-10-04T00:21:56.656Z,99.90
2022-10-04T00:27:29.527Z,99.90
2022-10-04T00:32:40.465Z,99.90
2022-10-04T00:38:11.965Z,99.90
2022-10-04T00:43:25.519Z,99.90
2022-10-04T00:48:44.959Z,99.90
2022-10-04T00:53:46.573Z,99.90
2022-10-04T00:59:11.018Z,99.90
2022-10-04T01:04:27.783Z,99.90
2022-10-04T01:09:36.874Z,99.90
2022-10-04T01:14:51.493Z,99.90
2022-10-04T01:19:54.109Z,99.90
2022-10-04T01:45:21.029Z,99.90
2022-10-04T01:50:43.648Z,99.90
2022-10-04T02:16:12.437Z,99.90
2022-10-04T02:21:16.109Z,99.90
2022-10-04T02:26:17.824Z,99.90
2022-10-04T02:31:41.177Z,99.90
2022-10-04T02:36:43.311Z,99.90
2022-10-04T02:41:51.894Z,99.90
2022-10-04T02:47:18.717Z,99.90
2022-10-04T02:52:34.220Z,99.90
2022-10-04T02:57:36.511Z,99.90
2022-10-04T03:02:47.266Z,99.90
2022-10-04T03:07:52.076Z,99.90
2022-10-04T03:22:58.286Z,99.90
2022-10-04T03:28:02.772Z,99.90
2022-10-04T03:33:05.972Z,99.90
2022-10-04T03:38:11.311Z,99.90
2022-10-04T03:43:14.744Z,99.90
2022-10-04T03:48:25.909Z,99.90
2022-10-04T03:53:40.120Z,99.90
2022-10-04T03:58:42.585Z,99.90
2022-10-04T04:04:19.287Z,99.90
2022-10-04T04:09:41.095Z,99.90
2022-10-04T04:14:43.343Z,99.90
2022-10-04T04:24:50.376Z,99.90
2022-10-04T04:29:53.445Z,99.90
2022-10-04T04:35:00.761Z,99.90
2022-10-04T04:40:19.970Z,99.90
2022-10-04T04:45:29.543Z,99.90
2022-10-04T04:50:35.651Z,99.90
2022-10-04T04:56:02.983Z,99.90
2022-10-04T05:01:29.033Z,99.90
2022-10-04T05:06:32.675Z,99.90
2022-10-04T05:11:38.393Z,99.90
2022-10-04T05:16:50.069Z,99.90
2022-10-04T05:21:53.829Z,99.90
2022-10-04T05:26:58.948Z,99.90
2022-10-04T05:32:17.527Z,99.90
2022-10-04T05:38:00.624Z,99.90
2022-10-04T05:43:03.117Z,99.90
2022-10-04T05:48:08.862Z,99.90
2022-10-04T05:53:22.718Z,99.90
2022-10-04T05:58:39.732Z,99.90
2022-10-04T06:03:55.626Z,99.90
2022-10-04T06:09:06.174Z,99.90
2022-10-04T06:14:30.803Z,99.90
2022-10-04T06:20:09.741Z,99.90
2022-10-04T06:25:23.236Z,99.90
2022-10-04T06:30:25.442Z,99.90
2022-10-04T06:35:42.727Z,99.90
2022-10-04T06:41:23.549Z,99.90
2022-10-04T06:46:51.221Z,99.90
2022-10-04T06:52:34.257Z,99.90
2022-10-04T06:57:59.932Z,99.90
2022-10-04T07:03:03.616Z,99.90
2022-10-04T07:08:30.959Z,99.90
2022-10-04T07:13:40.316Z,99.90
2022-10-04T07:19:19.386Z,99.90
2022-10-04T07:24:26.168Z,99.90
2022-10-04T07:29:42.041Z,99.90
2022-10-04T07:35:14.142Z,99.90
2022-10-04T07:40:27.621Z,99.90
2022-10-04T07:45:32.806Z,99.90
2022-10-04T07:50:57.105Z,99.90
2022-10-04T07:56:28.106Z,99.90
2022-10-04T08:01:44.569Z,99.90
2022-10-04T08:06:56.363Z,99.90
2022-10-04T08:12:13.439Z,99.90
2022-10-04T08:17:23.006Z,99.90
2022-10-04T08:22:31.406Z,99.90
2022-10-04T08:28:07.898Z,99.90
2022-10-04T08:33:26.246Z,99.90
2022-10-04T08:38:49.950Z,99.90
2022-10-04T08:44:10.145Z,99.90
2022-10-04T08:49:37.769Z,99.90
2022-10-04T08:55:12.739Z,99.90
2022-10-04T09:00:29.018Z,99.90
2022-10-04T09:05:45.481Z,99.90
2022-10-04T09:11:06.107Z,99.90
2022-10-04T09:16:22.929Z,99.90
2022-10-04T09:21:56.183Z,99.90
2022-10-04T09:27:04.040Z,99.90
2022-10-04T09:32:26.521Z,99.90
2022-10-04T09:37:42.283Z,99.90
2022-10-04T09:43:10.221Z,99.90
2022-10-04T09:48:25.329Z,99.90
2022-10-04T09:54:05.606Z,99.90
2022-10-04T09:59:45.662Z,99.90
2022-10-04T10:05:29.005Z,99.90
2022-10-04T10:11:23.386Z,99.90
2022-10-04T10:16:29.922Z,99.90
2022-10-04T10:22:00.237Z,99.90
2022-10-04T10:27:29.830Z,99.90
2022-10-04T10:32:52.971Z,99.90
2022-10-04T10:38:23.790Z,99.90
2022-10-04T10:43:51.768Z,99.90
2022-10-04T10:49:10.025Z,99.90
2022-10-04T10:54:34.189Z,99.90
2022-10-04T11:00:00.607Z,99.90
2022-10-04T11:05:32.432Z,99.90
2022-10-04T11:11:05.630Z,99.90
2022-10-04T11:16:38.114Z,99.90
2022-10-04T11:22:09.557Z,99.90
2022-10-04T11:27:25.091Z,99.90
2022-10-04T11:32:41.825Z,99.90
2022-10-04T11:38:07.845Z,99.90
2022-10-04T11:43:36.763Z,99.90
2022-10-04T11:48:43.938Z,99.90
2022-10-04T11:54:08.774Z,99.90
2022-10-04T11:59:38.819Z,99.90
2022-10-04T12:04:53.702Z,99.90
2022-10-04T12:10:17.661Z,99.90
2022-10-04T12:15:45.222Z,99.90
2022-10-04T12:20:51.349Z,99.90
2022-10-04T12:26:32.912Z,99.90
2022-10-04T12:31:58.778Z,99.90
2022-10-04T12:37:13.582Z,98.30
2022-10-04T12:42:43.526Z,99.00
2022-10-04T12:48:06.774Z,96.60
2022-10-04T12:53:39.025Z,95.10
2022-10-04T12:59:16.248Z,97.70
2022-10-04T13:04:20.997Z,93.80
2022-10-04T13:10:12.191Z,93.90
2022-10-04T13:21:41.157Z,91.20
2022-10-04T13:27:05.402Z,89.40
2022-10-04T13:32:33.129Z,90.00
2022-10-04T13:37:37.535Z,90.00
2022-10-04T13:42:58.884Z,84.70
2022-10-04T13:48:00.543Z,83.50
2022-10-04T13:53:50.649Z,79.80
2022-10-04T13:59:11.340Z,81.10
2022-10-04T14:05:17.619Z,76.70
2022-10-04T14:10:14.851Z,74.30
2022-10-04T14:15:29.556Z,75.20
2022-10-04T14:21:15.318Z,71.00
2022-10-04T14:26:24.145Z,70.20
2022-10-04T14:31:47.399Z,72.90
2022-10-04T14:37:15.692Z,76.40
2022-10-04T14:42:55.004Z,77.10
2022-10-04T14:48:12.368Z,83.20
2022-10-04T14:53:16.922Z,86.20
2022-10-04T14:58:36.376Z,88.40
2022-10-04T15:04:00.510Z,87.90
2022-10-04T15:09:20.297Z,92.00
2022-10-04T15:14:27.818Z,92.80
2022-10-04T15:19:59.417Z,92.20
2022-10-04T15:25:01.132Z,92.40
2022-10-04T15:30:23.311Z,91.70
2022-10-04T15:35:49.470Z,91.20
2022-10-04T15:41:01.952Z,93.20
2022-10-04T15:46:38.522Z,91.10
2022-10-04T15:51:43.210Z,91.40
2022-10-04T15:57:04.128Z,95.70
2022-10-04T16:02:54.210Z,97.50
2022-10-04T16:08:13.757Z,98.80
2022-10-04T16:13:41.530Z,99.90
2022-10-04T16:18:59.819Z,99.90
2022-10-04T16:24:19.988Z,99.90
2022-10-04T16:30:07.924Z,99.90
2022-10-04T16:35:34.804Z,99.90
2022-10-04T16:40:50.281Z,99.90
2022-10-04T16:46:16.190Z,99.90
2022-10-04T16:51:17.900Z,99.90
2022-10-04T16:56:29.776Z,99.90
2022-10-04T17:07:08.585Z,99.90
2022-10-04T17:12:23.825Z,99.90
2022-10-04T17:17:50.868Z,99.90
2022-10-04T17:23:12.572Z,99.90
2022-10-04T17:28:42.105Z,99.90
2022-10-04T17:34:14.183Z,99.90
2022-10-04T17:39:25.913Z,99.90
2022-10-04T17:44:49.072Z,99.90
2022-10-04T17:51:04.461Z,99.90
2022-10-04T17:56:08.225Z,99.90
2022-10-04T18:01:41.149Z,99.90
2022-10-04T18:06:48.349Z,99.90
2022-10-04T18:11:55.396Z,99.90
2022-10-04T18:17:00.724Z,99.90
2022-10-04T18:22:15.008Z,99.90
2022-10-04T18:27:22.981Z,99.90
2022-10-04T18:32:27.803Z,99.90
2022-10-04T18:37:35.567Z,99.90
2022-10-04T18:42:42.413Z,99.90
2022-10-04T18:52:54.755Z,99.90
2022-10-04T18:58:41.435Z,99.90
2022-10-04T19:04:17.515Z,99.90
2022-10-04T19:09:39.815Z,99.90
2022-10-04T19:14:50.511Z,99.90
2022-10-04T19:20:24.594Z,99.90
2022-10-04T19:25:40.914Z,99.90
2022-10-04T19:31:12.729Z,99.90
2022-10-04T19:36:36.646Z,99.90
2022-10-04T19:42:11.425Z,99.90
2022-10-04T19:47:19.027Z,99.90
2022-10-04T19:52:47.783Z,99.90
2022-10-04T19:57:53.967Z,99.90
2022-10-04T20:02:55.673Z,99.90
2022-10-04T20:08:05.466Z,99.90
2022-10-04T20:13:25.633Z,99.90
2022-10-04T20:18:33.491Z,99.90
2022-10-04T20:23:38.380Z,99.90
2022-10-04T20:28:42.354Z,99.90
2022-10-04T20:33:48.335Z,99.90
2022-10-04T20:39:00.191Z,99.90
2022-10-04T20:44:03.958Z,99.90
2022-10-04T20:49:15.686Z,99.90
2022-10-04T20:54:18.878Z,99.90
2022-10-04T20:59:22.215Z,99.90
2022-10-04T21:04:50.372Z,99.90
2022-10-04T21:09:56.350Z,99.90
2022-10-04T21:15:21.818Z,99.90
2022-10-04T21:20:42.396Z,99.90
2022-10-04T21:25:44.085Z,99.90
2022-10-04T21:30:45.744Z,99.90
2022-10-04T21:35:51.530Z,99.90
2022-10-04T21:40:53.304Z,99.90
2022-10-04T21:45:55.345Z,99.90
2022-10-04T21:55:59.287Z,99.90
2022-10-04T22:01:01.070Z,99.90
2022-10-04T22:06:02.808Z,99.90
2022-10-04T22:16:06.995Z,99.90
2022-10-04T22:21:08.787Z,99.90
2022-10-04T22:26:22.051Z,99.90
2022-10-04T22:31:28.983Z,99.90
2022-10-04T22:36:37.573Z,99.90
2022-10-04T22:41:56.116Z,99.90
2022-10-04T22:46:59.884Z,99.90
2022-10-04T22:52:09.938Z,99.90
2022-10-04T22:57:14.581Z,99.90
2022-10-04T23:02:26.860Z,99.90
2022-10-04T23:17:38.622Z,99.90
2022-10-04T23:22:46.133Z,99.90
2022-10-04T23:27:48.073Z,99.90
2022-10-04T23:32:53.189Z,99.90
2022-10-04T23:37:55.159Z,99.90
2022-10-04T23:42:57.483Z,99.90
2022-10-04T23:53:06.548Z,99.90
2022-10-04T23:58:21.980Z,99.90
